Hlavní strana
METAR-TAF:

METAR-TAF

Letiště :

Kristiansund, Norsko

zeměpisná šířka: 63-07N, zeměpisná délka: 007-50E, výška: 6 m

Aktuální stav počasí

Zpráva byla vytvořena před 29 minutami, v 17:50 UTC
vítr z různých směrů 3 kt
Teplota 5°C
Vlhkost vzduchu 56%
Tlak 967 hPa
Viditelnost 10 km a více
Žádná oblačnost pod 1500 m, nevyskytují se cumulonimby.

METAR: ENKB 221750Z VRB03KT CAVOK 05/M03 Q0967 RMK WIND 745FT 15013KT

Čas: 19:19 (18:19 UTC)

Předpověď počasí

Zpráva byla vytvořena před 1 hodinou a 19 minutami, v 17:00 UTC
Předpověď platná od 22 v 18 UTC do 22 v 21 UTC
Jihovýchodní vítr 7 kt
Viditelnost 10 km a více
Žádná oblačnost pod 1500 m, nevyskytují se cumulonimby.

TAF: ENKB 221700Z 2218/2221 14007KT CAVOK

Stav a předpovědi počasí z více než 4 000 letišť (zprávy METAR a TAF).

Červené a žluté tečky na mapě představují dostupné meteorologické stanice.

Když kurzor umístíte na tečku, zobrazí se název stanice.

Pak kliknutím zobrazíte stav a předpověď počasí.

Chcete-li změnit mapu, kliknutím na zelené tlačítko se znaménkem +mapu přiblížíte, kliknutím na zelené tlačítko se znaménkem – mapu oddálíte a kliknutím na zelené šipky přejdete na sousední mapy.


METAR-TAF: